Time;durP1;ratioP1;P1;durP2;ratioP2;P2;SDS_P1;SDS_P2;PMS_P1;PMS_P2;Temp;Humidity;BMP_temperature;BMP_pressure;BME280_temperature;BME280_humidity;BME280_pressure;Samples;Min_cycle;Max_cycle;Signal;HPM_P1;HPM_P2
2021/07/02 00:00:32;;;;;;;7.00;5.03;;;22.50;84.40;;;;;;4978568;28;20585;-91
2021/07/02 00:03:02;;;;;;;6.03;4.75;;;22.40;84.50;;;;;;4979694;28;20023;-91
2021/07/02 00:05:28;;;;;;;6.35;5.50;;;22.40;84.60;;;;;;4981244;28;20035;-90
2021/07/02 00:07:54;;;;;;;7.38;5.07;;;22.40;84.80;;;;;;4977812;28;20042;-90
2021/07/02 00:10:20;;;;;;;5.35;4.85;;;22.40;85.10;;;;;;4977452;28;20034;-90
2021/07/02 00:12:45;;;;;;;6.22;5.40;;;22.40;85.20;;;;;;4976468;28;20113;-91
2021/07/02 00:15:12;;;;;;;5.20;4.70;;;22.30;85.20;;;;;;4976654;28;20114;-91
2021/07/02 00:17:38;;;;;;;6.10;5.50;;;22.30;85.40;;;;;;4976749;28;20033;-91
2021/07/02 00:20:05;;;;;;;8.25;4.88;;;22.30;85.50;;;;;;4976285;28;20568;-91
2021/07/02 00:22:33;;;;;;;5.07;4.57;;;22.20;85.60;;;;;;4976447;28;20118;-91
2021/07/02 00:24:59;;;;;;;5.88;5.28;;;22.20;85.70;;;;;;4976113;28;20126;-91
2021/07/02 00:27:25;;;;;;;5.90;4.68;;;22.20;85.90;;;;;;4976224;28;20121;-91
2021/07/02 00:29:51;;;;;;;6.75;4.90;;;22.20;86.00;;;;;;4976363;28;20456;-91
2021/07/02 00:32:17;;;;;;;6.65;5.25;;;22.20;86.10;;;;;;4976241;28;20385;-92
2021/07/02 00:34:42;;;;;;;6.28;5.45;;;22.10;86.30;;;;;;4976333;28;20034;-92
2021/07/02 00:37:08;;;;;;;5.00;4.53;;;22.20;86.40;;;;;;4976003;28;20114;-91
2021/07/02 00:39:34;;;;;;;10.10;5.28;;;22.10;86.40;;;;;;4975592;28;20033;-91
2021/07/02 00:41:59;;;;;;;5.80;4.80;;;22.10;86.50;;;;;;4975959;28;20138;-91
2021/07/02 00:44:42;;;;;;;5.38;4.85;;;22.10;86.60;;;;;;4975144;28;20371;-91
2021/07/02 00:47:08;;;;;;;5.13;4.37;;;22.10;86.60;;;;;;4977233;28;20376;-91
2021/07/02 00:49:35;;;;;;;6.25;4.80;;;22.10;86.60;;;;;;4975886;28;20260;-91
2021/07/02 00:52:03;;;;;;;4.90;4.40;;;22.10;86.80;;;;;;4975796;28;20410;-91
2021/07/02 00:54:28;;;;;;;5.72;5.13;;;22.00;86.80;;;;;;4976929;28;20026;-92
2021/07/02 00:56:54;;;;;;;8.70;5.38;;;22.00;86.90;;;;;;4975711;28;20033;-92
2021/07/02 00:59:20;;;;;;;5.97;5.28;;;22.00;87.20;;;;;;4975623;28;20035;-91
2021/07/02 01:01:45;;;;;;;6.80;5.20;;;21.90;87.40;;;;;;4975847;28;20031;-92
2021/07/02 01:04:11;;;;;;;6.28;4.70;;;21.90;87.60;;;;;;4976987;28;20030;-91
2021/07/02 01:06:37;;;;;;;6.50;5.20;;;21.90;87.70;;;;;;4981119;28;20054;-91
2021/07/02 01:09:04;;;;;;;5.00;4.50;;;21.90;87.80;;;;;;4979987;28;20033;-91
2021/07/02 01:11:30;;;;;;;6.13;4.68;;;21.90;87.90;;;;;;4977130;28;20042;-91
2021/07/02 01:13:56;;;;;;;5.13;4.55;;;21.80;87.90;;;;;;4998649;28;20019;-90
2021/07/02 01:16:22;;;;;;;6.72;5.00;;;21.80;87.90;;;;;;4999338;28;20027;-91
2021/07/02 01:18:47;;;;;;;6.13;4.60;;;21.80;88.00;;;;;;4999152;28;20010;-92
2021/07/02 01:21:13;;;;;;;5.80;5.03;;;21.80;88.20;;;;;;4999186;28;20050;-91
2021/07/02 01:23:39;;;;;;;5.70;4.38;;;21.80;88.30;;;;;;4992861;28;20034;-92
2021/07/02 01:26:05;;;;;;;5.00;4.40;;;21.70;88.20;;;;;;4976910;28;20033;-91
2021/07/02 01:28:31;;;;;;;5.55;4.32;;;21.70;88.30;;;;;;4976904;28;20027;-91
2021/07/02 01:30:57;;;;;;;6.05;4.53;;;21.70;88.30;;;;;;4977019;28;20026;-92
2021/07/02 01:33:22;;;;;;;5.03;4.40;;;21.70;88.40;;;;;;4976686;28;20485;-91
2021/07/02 01:35:48;;;;;;;5.35;4.82;;;21.70;88.50;;;;;;4975100;28;20034;-91
2021/07/02 01:38:14;;;;;;;6.53;4.57;;;21.70;88.60;;;;;;4974906;28;20444;-91
2021/07/02 01:40:40;;;;;;;6.68;5.40;;;21.60;88.70;;;;;;4978086;28;20031;-91
2021/07/02 01:43:05;;;;;;;5.15;4.60;;;21.60;88.80;;;;;;4981613;28;20134;-90
2021/07/02 01:45:31;;;;;;;5.68;4.93;;;21.60;88.90;;;;;;4980978;28;20038;-91
2021/07/02 01:47:57;;;;;;;5.05;4.55;;;21.50;88.90;;;;;;4979755;28;20525;-90
2021/07/02 01:50:25;;;;;;;6.47;4.82;;;21.50;89.10;;;;;;4979863;28;20031;-90
2021/07/02 01:52:54;;;;;;;6.07;5.07;;;21.50;89.20;;;;;;4978926;28;20023;-91
2021/07/02 01:55:21;;;;;;;5.82;4.93;;;21.50;89.40;;;;;;4977386;28;20031;-91
2021/07/02 01:57:47;;;;;;;7.30;4.72;;;21.40;89.50;;;;;;4976594;28;20027;-92
2021/07/02 02:00:13;;;;;;;8.05;5.20;;;21.40;89.60;;;;;;4976626;28;20480;-92
2021/07/02 02:02:39;;;;;;;7.32;5.28;;;21.40;89.70;;;;;;4975007;28;20026;-91
2021/07/02 02:05:05;;;;;;;9.10;5.10;;;21.40;89.80;;;;;;4974626;28;20034;-91
2021/07/02 02:07:31;;;;;;;6.57;5.78;;;21.40;90.00;;;;;;4975691;28;20099;-91
2021/07/02 02:09:56;;;;;;;8.73;5.85;;;21.40;90.00;;;;;;4974729;28;20050;-91
2021/07/02 02:12:22;;;;;;;6.40;5.25;;;21.40;90.00;;;;;;4974770;28;20077;-91
2021/07/02 02:14:48;;;;;;;6.40;5.78;;;21.40;90.10;;;;;;4975103;28;20038;-91
2021/07/02 02:17:14;;;;;;;5.45;4.95;;;21.40;90.10;;;;;;4974299;28;20115;-91
2021/07/02 02:19:39;;;;;;;9.57;4.78;;;21.40;90.10;;;;;;4974675;28;20034;-91
2021/07/02 02:22:05;;;;;;;9.10;5.38;;;21.40;90.10;;;;;;4974685;28;20109;-91
2021/07/02 02:24:31;;;;;;;6.00;4.70;;;21.40;90.10;;;;;;4974587;28;20038;-91
2021/07/02 02:26:57;;;;;;;7.88;5.80;;;21.40;90.10;;;;;;4975738;28;20038;-91
2021/07/02 02:29:24;;;;;;;6.32;5.18;;;21.40;90.10;;;;;;4974607;28;20027;-91
2021/07/02 02:31:50;;;;;;;5.63;5.03;;;21.40;90.10;;;;;;4974382;28;20027;-91
2021/07/02 02:34:16;;;;;;;5.65;5.05;;;21.50;90.10;;;;;;4974677;28;20035;-91
2021/07/02 02:36:42;;;;;;;5.80;4.80;;;21.50;90.10;;;;;;4974482;28;20082;-91
2021/07/02 02:39:08;;;;;;;4.90;4.40;;;21.50;90.10;;;;;;4974568;28;20078;-91
2021/07/02 02:41:33;;;;;;;5.43;4.63;;;21.50;90.10;;;;;;4990850;28;20066;-91
2021/07/02 02:44:00;;;;;;;6.22;5.55;;;21.60;90.00;;;;;;4974340;28;20133;-92
2021/07/02 02:46:26;;;;;;;7.07;5.03;;;21.60;90.00;;;;;;4974263;28;20402;-91
2021/07/02 02:48:51;;;;;;;6.38;5.07;;;21.60;90.00;;;;;;4974058;28;20022;-91
2021/07/02 02:51:17;;;;;;;5.07;4.50;;;21.70;89.90;;;;;;4974432;28;20038;-92
2021/07/02 02:53:43;;;;;;;8.10;5.50;;;21.70;89.80;;;;;;4974394;28;20027;-91
2021/07/02 02:56:08;;;;;;;5.85;4.72;;;21.70;90.00;;;;;;4974344;28;20102;-91
2021/07/02 02:58:34;;;;;;;6.50;5.18;;;21.80;89.40;;;;;;4974524;28;20078;-91
2021/07/02 03:01:00;;;;;;;6.40;5.15;;;21.80;89.30;;;;;;4974960;28;20374;-91
2021/07/02 03:03:26;;;;;;;6.43;5.72;;;21.90;89.20;;;;;;4974506;28;20027;-91
2021/07/02 03:05:51;;;;;;;6.57;5.30;;;21.90;89.00;;;;;;4974341;28;20082;-91
2021/07/02 03:08:17;;;;;;;6.07;4.93;;;21.90;88.90;;;;;;4977295;28;20062;-91
2021/07/02 03:10:43;;;;;;;5.40;4.90;;;22.00;88.80;;;;;;4985959;28;20078;-91
2021/07/02 03:13:09;;;;;;;5.95;4.93;;;22.00;88.60;;;;;;5001371;28;20067;-90
2021/07/02 03:15:35;;;;;;;5.55;4.95;;;22.00;88.30;;;;;;5001729;28;20011;-90
2021/07/02 03:18:01;;;;;;;5.40;4.80;;;22.00;88.10;;;;;;5001323;28;20140;-89
2021/07/02 03:20:27;;;;;;;5.75;4.82;;;22.10;88.10;;;;;;5000945;28;20018;-90
2021/07/02 03:22:53;;;;;;;5.53;5.03;;;22.10;88.00;;;;;;4987270;28;20597;-91
2021/07/02 03:25:19;;;;;;;7.18;5.45;;;22.10;87.90;;;;;;4980030;28;20074;-91
2021/07/02 03:27:45;;;;;;;5.85;5.15;;;22.20;87.90;;;;;;4978764;28;20062;-91
2021/07/02 03:30:12;;;;;;;6.85;5.22;;;22.20;87.80;;;;;;4978763;28;20097;-92
2021/07/02 03:32:38;;;;;;;7.72;5.93;;;22.30;87.70;;;;;;4978587;28;20378;-92
2021/07/02 03:35:06;;;;;;;7.50;6.15;;;22.30;87.50;;;;;;4978419;28;20038;-91
2021/07/02 03:37:32;;;;;;;8.80;5.85;;;22.40;87.60;;;;;;4977125;28;20466;-91
2021/07/02 03:39:58;;;;;;;5.95;5.35;;;22.40;87.60;;;;;;4978422;28;20026;-91
2021/07/02 03:42:24;;;;;;;8.07;6.13;;;22.40;87.50;;;;;;4977006;28;20474;-91
2021/07/02 03:44:49;;;;;;;6.68;5.97;;;22.50;87.40;;;;;;4977013;28;20041;-91
2021/07/02 03:47:15;;;;;;;6.28;5.68;;;22.60;87.30;;;;;;4977407;28;20023;-92
2021/07/02 03:49:41;;;;;;;6.95;6.25;;;22.60;87.20;;;;;;4977141;28;20027;-92
2021/07/02 03:52:07;;;;;;;7.18;6.47;;;22.70;87.00;;;;;;4976989;28;20033;-92
2021/07/02 03:54:33;;;;;;;8.43;7.28;;;22.70;87.40;;;;;;4977259;28;20034;-92
2021/07/02 03:57:11;;;;;;;7.35;6.63;;;22.80;86.80;;;;;;4976648;28;20026;-93
2021/07/02 03:59:38;;;;;;;10.88;7.03;;;22.80;86.70;;;;;;4976486;28;20055;-92
2021/07/02 04:02:04;;;;;;;6.90;6.20;;;22.80;86.70;;;;;;4976422;28;20031;-92
2021/07/02 04:04:33;;;;;;;6.70;6.00;;;22.90;86.70;;;;;;4976587;28;20070;-92
2021/07/02 04:06:59;;;;;;;6.63;5.93;;;22.90;86.70;;;;;;4976875;28;20482;-92
2021/07/02 04:09:24;;;;;;;9.70;7.05;;;23.10;86.60;;;;;;4978707;28;20027;-92
2021/07/02 04:11:50;;;;;;;8.30;7.38;;;23.20;86.10;;;;;;4978527;28;20460;-92
2021/07/02 04:14:16;;;;;;;7.35;6.60;;;23.20;85.60;;;;;;4978303;28;20045;-92
2021/07/02 04:16:41;;;;;;;6.72;6.03;;;23.30;85.60;;;;;;4977298;28;20099;-92
2021/07/02 04:19:07;;;;;;;7.60;6.90;;;23.30;86.10;;;;;;4976282;28;20126;-92
2021/07/02 04:21:33;;;;;;;7.07;6.38;;;23.40;85.50;;;;;;4976720;28;20038;-92
2021/07/02 04:23:58;;;;;;;7.03;6.32;;;23.50;85.20;;;;;;4976415;28;20131;-92
2021/07/02 04:26:24;;;;;;;8.10;6.70;;;23.50;85.50;;;;;;4976428;28;20042;-92
2021/07/02 04:28:50;;;;;;;7.38;6.65;;;23.60;84.80;;;;;;4976069;28;20050;-92
2021/07/02 04:31:15;;;;;;;7.95;7.15;;;23.70;84.40;;;;;;4976229;28;20030;-92
2021/07/02 04:33:41;;;;;;;9.32;6.50;;;23.70;84.10;;;;;;4976044;28;20031;-92
2021/07/02 04:36:07;;;;;;;8.98;7.07;;;23.80;84.10;;;;;;4975652;28;20098;-92
2021/07/02 04:38:32;;;;;;;8.70;7.55;;;23.80;84.00;;;;;;4976089;28;20026;-93
2021/07/02 04:40:58;;;;;;;8.55;7.72;;;23.80;83.90;;;;;;4977460;28;20026;-92
2021/07/02 04:43:24;;;;;;;9.80;8.20;;;23.80;84.00;;;;;;4975955;28;20486;-93
2021/07/02 04:45:49;;;;;;;8.50;7.65;;;23.80;84.10;;;;;;4975779;28;20129;-92
2021/07/02 04:48:15;;;;;;;9.38;7.80;;;23.80;84.00;;;;;;4976172;28;20029;-93
2021/07/02 04:50:41;;;;;;;8.30;7.50;;;23.90;84.10;;;;;;4975842;28;20027;-92
2021/07/02 04:53:07;;;;;;;7.75;7.03;;;23.90;84.10;;;;;;4976945;28;20034;-93
2021/07/02 04:55:32;;;;;;;8.00;7.20;;;24.00;84.20;;;;;;4976863;28;20034;-92
2021/07/02 04:57:58;;;;;;;8.73;7.85;;;24.00;83.90;;;;;;4975676;28;20130;-93
2021/07/02 05:00:26;;;;;;;11.15;9.48;;;24.10;83.60;;;;;;4976830;28;20027;-92
2021/07/02 05:02:52;;;;;;;11.55;8.55;;;24.20;83.50;;;;;;4977496;28;20034;-92
2021/07/02 05:05:21;;;;;;;9.05;8.15;;;24.20;83.30;;;;;;4975146;28;20039;-92
2021/07/02 05:07:46;;;;;;;8.27;7.47;;;24.20;83.20;;;;;;4976940;28;20077;-92
2021/07/02 05:10:12;;;;;;;8.25;7.43;;;24.30;83.20;;;;;;4975398;28;20031;-92
2021/07/02 05:12:38;;;;;;;8.55;7.75;;;24.40;83.10;;;;;;4974831;28;20026;-93
2021/07/02 05:15:04;;;;;;;9.98;8.88;;;24.50;82.90;;;;;;4976152;28;20454;-92
2021/07/02 05:17:30;;;;;;;13.73;9.10;;;24.60;82.60;;;;;;4986436;28;20038;-92
2021/07/02 05:19:56;;;;;;;8.63;7.72;;;24.60;82.40;;;;;;4997647;28;20031;-92
2021/07/02 05:22:22;;;;;;;9.70;7.97;;;24.70;82.40;;;;;;4997992;28;20099;-92
2021/07/02 05:24:49;;;;;;;8.98;8.18;;;24.70;82.50;;;;;;4998375;28;20043;-92
2021/07/02 05:27:16;;;;;;;10.23;9.23;;;24.70;82.30;;;;;;4997600;28;20023;-94
2021/07/02 05:29:42;;;;;;;10.60;9.60;;;24.80;82.30;;;;;;4992158;28;20034;-92
2021/07/02 05:32:08;;;;;;;10.23;9.32;;;24.80;82.20;;;;;;4977813;28;20031;-93
2021/07/02 05:34:34;;;;;;;11.27;10.18;;;24.80;82.20;;;;;;4977620;28;20035;-92
2021/07/02 05:37:01;;;;;;;12.60;9.07;;;24.90;82.30;;;;;;4977521;28;20030;-92
2021/07/02 05:39:28;;;;;;;8.93;8.13;;;24.90;82.30;;;;;;4977520;28;20019;-92
2021/07/02 05:41:53;;;;;;;9.35;8.45;;;25.00;82.30;;;;;;4975486;28;20206;-93
2021/07/02 05:44:20;;;;;;;9.38;8.25;;;25.10;82.00;;;;;;4975669;28;20047;-91
2021/07/02 05:46:45;;;;;;;9.63;7.78;;;25.30;81.70;;;;;;4975556;28;20462;-91
2021/07/02 05:49:12;;;;;;;8.50;7.68;;;25.40;81.40;;;;;;4979645;28;20095;-92
2021/07/02 05:51:38;;;;;;;8.40;7.60;;;25.60;80.90;;;;;;4979162;28;20059;-91
2021/07/02 05:54:05;;;;;;;11.02;9.93;;;25.70;80.60;;;;;;4980695;28;20550;-91
2021/07/02 05:56:31;;;;;;;11.52;10.43;;;25.80;79.90;;;;;;4976851;28;20023;-92
2021/07/02 05:58:58;;;;;;;12.82;10.50;;;25.80;79.20;;;;;;4975955;28;20089;-92
2021/07/02 06:01:24;;;;;;;13.07;11.77;;;25.80;79.20;;;;;;4976598;28;20085;-91
2021/07/02 06:03:50;;;;;;;10.35;8.82;;;25.80;79.50;;;;;;4977334;28;20528;-92
2021/07/02 06:06:17;;;;;;;10.52;9.43;;;25.90;79.40;;;;;;4975492;28;20023;-92
2021/07/02 06:08:46;;;;;;;11.77;10.30;;;26.00;79.50;;;;;;4978097;28;20505;-91
2021/07/02 06:11:12;;;;;;;10.23;9.20;;;26.10;79.10;;;;;;4984246;28;20033;-92
2021/07/02 06:13:38;;;;;;;11.20;10.00;;;26.10;78.70;;;;;;4983971;28;20481;-91
2021/07/02 06:16:04;;;;;;;10.77;9.77;;;26.20;78.60;;;;;;4983389;28;20042;-91
2021/07/02 06:18:31;;;;;;;10.48;9.40;;;26.20;78.30;;;;;;4982658;28;20023;-92
2021/07/02 06:20:56;;;;;;;10.77;9.77;;;26.30;78.30;;;;;;4984641;28;20052;-91
2021/07/02 06:23:25;;;;;;;10.70;9.60;;;26.40;78.10;;;;;;4984715;28;20038;-91
2021/07/02 06:25:51;;;;;;;11.02;9.93;;;26.50;77.40;;;;;;4983955;28;20058;-91
2021/07/02 06:28:17;;;;;;;10.88;9.50;;;26.60;76.90;;;;;;4983916;28;20019;-92
2021/07/02 06:30:43;;;;;;;11.30;9.77;;;26.60;76.80;;;;;;4982530;28;20037;-92
2021/07/02 06:33:10;;;;;;;8.93;8.05;;;26.70;76.80;;;;;;4980003;28;20050;-91
2021/07/02 06:35:36;;;;;;;10.40;9.38;;;26.80;75.80;;;;;;4978568;28;20027;-92
2021/07/02 06:38:02;;;;;;;9.18;8.27;;;26.90;75.40;;;;;;4976685;28;20086;-92
2021/07/02 06:40:28;;;;;;;9.05;7.72;;;27.00;75.00;;;;;;4974032;28;20034;-92
2021/07/02 06:42:54;;;;;;;10.18;8.52;;;27.20;74.80;;;;;;4974769;28;20358;-93
2021/07/02 06:45:20;;;;;;;9.07;8.18;;;27.40;73.90;;;;;;4980077;28;20482;-92
2021/07/02 06:47:57;;;;;;;8.65;7.78;;;27.40;72.90;;;;;;4977946;28;20561;-92
2021/07/02 06:50:28;;;;;;;7.75;6.95;;;27.60;72.70;;;;;;4978472;28;20037;-92
2021/07/02 06:52:54;;;;;;;7.40;6.70;;;27.70;72.40;;;;;;4979497;28;20023;-92
2021/07/02 06:55:20;;;;;;;12.73;7.78;;;27.90;72.10;;;;;;4979431;28;20050;-92
2021/07/02 06:57:46;;;;;;;8.90;8.00;;;28.00;70.60;;;;;;4980518;28;20411;-93
2021/07/02 07:00:13;;;;;;;8.68;7.78;;;28.10;69.20;;;;;;4977673;28;20058;-92
2021/07/02 07:02:38;;;;;;;7.93;7.00;;;28.00;68.80;;;;;;4977778;28;20029;-92
2021/07/02 07:05:05;;;;;;;7.15;6.38;;;28.00;68.70;;;;;;4977948;28;20102;-92
2021/07/02 07:07:31;;;;;;;7.50;6.80;;;28.00;69.10;;;;;;4977731;28;20402;-92
2021/07/02 07:09:56;;;;;;;8.48;7.68;;;28.10;69.60;;;;;;4977113;28;20023;-92
2021/07/02 07:12:22;;;;;;;8.27;7.45;;;28.30;69.70;;;;;;4978694;28;20034;-93
2021/07/02 07:14:48;;;;;;;8.32;7.53;;;28.40;69.30;;;;;;4977656;28;20034;-93
2021/07/02 07:17:14;;;;;;;9.23;7.05;;;28.60;69.40;;;;;;4977185;28;20026;-93
2021/07/02 07:19:40;;;;;;;8.43;7.57;;;28.70;69.30;;;;;;4976503;28;20201;-92
2021/07/02 07:22:09;;;;;;;8.35;7.55;;;28.90;69.00;;;;;;4976804;28;20030;-92
2021/07/02 07:24:35;;;;;;;7.50;6.78;;;28.90;67.50;;;;;;4977239;28;20038;-93
2021/07/02 07:27:09;;;;;;;7.00;6.40;;;29.00;66.90;;;;;;4979886;28;20058;-93
2021/07/02 07:29:36;;;;;;;6.72;6.07;;;28.90;66.50;;;;;;4970951;28;20103;-94
2021/07/02 07:32:03;;;;;;;10.90;8.48;;;28.90;67.10;;;;;;4994338;28;20037;-93
2021/07/02 07:37:20;;;;;;;11.57;10.38;;;29.00;67.70;;;;;;4992023;28;20040;-92
2021/07/02 07:39:50;;;;;;;8.43;7.72;;;29.00;68.00;;;;;;4988546;28;20057;-93
2021/07/02 07:42:19;;;;;;;7.68;6.55;;;28.90;67.80;;;;;;4971012;28;20054;-94
2021/07/02 07:44:45;;;;;;;7.60;6.90;;;28.80;67.50;;;;;;4962690;28;20073;-91
2021/07/02 07:47:11;;;;;;;10.18;6.45;;;28.90;67.10;;;;;;4966999;28;20094;-92
2021/07/02 07:49:37;;;;;;;6.72;6.13;;;29.00;66.80;;;;;;4965067;28;20027;-92
2021/07/02 07:54:30;;;;;;;11.52;10.43;;;29.30;66.70;;;;;;4957968;28;20034;-91
2021/07/02 07:57:00;;;;;;;10.10;9.00;;;29.30;66.70;;;;;;4972475;28;20039;-91
2021/07/02 07:59:28;;;;;;;9.32;8.30;;;29.30;67.10;;;;;;4978991;28;20050;-92
2021/07/02 08:01:56;;;;;;;9.35;8.48;;;29.20;67.20;;;;;;4982914;28;20022;-94
2021/07/02 08:04:21;;;;;;;9.38;8.10;;;29.20;67.50;;;;;;4988117;28;20106;-92
2021/07/02 08:06:50;;;;;;;9.82;7.85;;;29.30;67.70;;;;;;4984782;28;20045;-93
2021/07/02 08:09:16;;;;;;;8.35;7.50;;;29.40;67.70;;;;;;4985915;28;20026;-93
2021/07/02 08:11:42;;;;;;;8.05;7.25;;;29.50;67.40;;;;;;4987400;28;20134;-94
2021/07/02 08:14:08;;;;;;;8.90;8.00;;;29.70;67.20;;;;;;4983881;28;20135;-94
2021/07/02 08:16:35;;;;;;;8.75;7.95;;;29.80;66.90;;;;;;5000535;28;20027;-93
2021/07/02 08:19:07;;;;;;;9.30;8.45;;;29.90;66.50;;;;;;4970257;28;20084;-94
2021/07/02 08:21:34;;;;;;;8.52;7.72;;;30.00;66.10;;;;;;4973289;28;20110;-94
2021/07/02 08:24:01;;;;;;;9.48;8.63;;;30.00;65.80;;;;;;4974230;28;20459;-93
2021/07/02 08:26:27;;;;;;;8.80;8.00;;;29.80;65.30;;;;;;4960757;28;20031;-96
2021/07/02 08:31:38;;;;;;;8.93;8.13;;;29.70;65.70;;;;;;4970672;28;20098;-94
2021/07/02 08:34:06;;;;;;;8.30;7.60;;;29.80;65.70;;;;;;4975960;28;20142;-94
2021/07/02 08:36:32;;;;;;;11.68;9.05;;;29.90;65.70;;;;;;4976734;28;20026;-95
2021/07/02 08:38:58;;;;;;;9.13;8.25;;;30.00;66.00;;;;;;4979019;28;20031;-94
2021/07/02 08:41:24;;;;;;;9.65;8.60;;;30.00;65.40;;;;;;4972818;28;20438;-92
2021/07/02 08:43:51;;;;;;;10.20;9.20;;;30.00;65.10;;;;;;4974066;28;20086;-93
2021/07/02 08:46:20;;;;;;;9.20;8.23;;;29.90;64.90;;;;;;4975828;28;20035;-92
2021/07/02 08:48:51;;;;;;;8.20;7.40;;;29.70;65.00;;;;;;4976092;28;20062;-94
2021/07/02 08:51:17;;;;;;;8.43;7.63;;;29.50;65.10;;;;;;4964243;28;20042;-92
2021/07/02 08:53:44;;;;;;;8.18;7.03;;;29.30;65.50;;;;;;4973968;28;20034;-93
2021/07/02 08:56:11;;;;;;;9.40;8.50;;;29.30;65.80;;;;;;4957122;28;20039;-94
2021/07/02 08:58:37;;;;;;;8.82;7.93;;;29.20;65.50;;;;;;4957405;28;20031;-93
2021/07/02 09:01:09;;;;;;;9.75;8.02;;;29.30;66.00;;;;;;4961682;28;20023;-94
2021/07/02 09:03:39;;;;;;;8.47;7.67;;;29.40;65.50;;;;;;4965745;28;20027;-95
2021/07/02 09:06:15;;;;;;;11.48;7.95;;;29.40;65.10;;;;;;4974373;28;20142;-93
2021/07/02 09:08:59;;;;;;;10.18;9.15;;;29.40;64.90;;;;;;4976257;28;20027;-92
2021/07/02 09:11:27;;;;;;;8.98;8.18;;;29.30;63.50;;;;;;4974696;28;20343;-93
2021/07/02 09:13:53;;;;;;;10.55;8.70;;;29.10;64.80;;;;;;4976765;28;20081;-94
2021/07/02 09:16:28;;;;;;;8.68;7.90;;;29.10;65.60;;;;;;4975513;28;20030;-94
2021/07/02 09:18:55;;;;;;;9.82;8.50;;;29.00;66.00;;;;;;4974517;28;20723;-93
2021/07/02 09:21:26;;;;;;;9.20;7.40;;;29.00;66.10;;;;;;4974144;28;20037;-94
2021/07/02 09:23:52;;;;;;;9.70;8.75;;;28.90;66.20;;;;;;4975728;28;20073;-93
2021/07/02 09:26:38;;;;;;;8.70;7.63;;;29.00;66.50;;;;;;4968025;28;20095;-95
2021/07/02 09:29:24;;;;;;;8.15;7.45;;;29.10;66.50;;;;;;4970649;28;20031;-94
2021/07/02 09:32:16;;;;;;;7.93;7.28;;;29.20;65.90;;;;;;4975660;28;20027;-94
2021/07/02 09:34:55;;;;;;;7.72;6.90;;;29.10;66.10;;;;;;4971650;28;20574;-93
2021/07/02 09:37:24;;;;;;;9.70;7.57;;;29.20;66.20;;;;;;4975763;28;20122;-93
2021/07/02 09:39:51;;;;;;;8.80;7.95;;;29.10;65.90;;;;;;4965686;28;20039;-95
2021/07/02 09:42:27;;;;;;;7.93;7.13;;;28.90;66.10;;;;;;4969002;28;20500;-94
2021/07/02 09:45:06;;;;;;;8.38;7.57;;;28.80;66.70;;;;;;4977914;28;20054;-92
2021/07/02 09:47:33;;;;;;;9.23;6.57;;;28.70;67.50;;;;;;4987975;28;20027;-92
2021/07/02 09:50:28;;;;;;;7.57;6.85;;;28.60;67.60;;;;;;4983322;28;20031;-91
2021/07/02 09:53:09;;;;;;;7.70;7.00;;;28.60;68.30;;;;;;4989205;28;20039;-92
2021/07/02 09:56:06;;;;;;;7.50;6.80;;;28.50;68.30;;;;;;4991576;28;20038;-93
2021/07/02 09:58:36;;;;;;;7.57;6.80;;;28.50;68.70;;;;;;4981288;28;20031;-94
2021/07/02 10:01:03;;;;;;;10.43;7.60;;;28.50;68.60;;;;;;4962087;28;20037;-94
2021/07/02 10:03:41;;;;;;;8.60;7.70;;;28.50;68.50;;;;;;4978126;28;20043;-94
2021/07/02 10:06:28;;;;;;;7.18;6.47;;;28.50;68.90;;;;;;4978639;28;20035;-96
2021/07/02 10:09:03;;;;;;;7.55;6.85;;;28.60;69.00;;;;;;4981528;28;20061;-96
2021/07/02 10:11:31;;;;;;;8.85;7.95;;;28.70;68.50;;;;;;4978572;28;20035;-96
2021/07/02 10:13:59;;;;;;;7.90;7.20;;;28.80;68.50;;;;;;4970401;28;20035;-96
2021/07/02 10:16:34;;;;;;;8.00;7.20;;;28.90;67.90;;;;;;4985031;28;20042;-96
2021/07/02 10:19:03;;;;;;;7.95;7.25;;;29.10;67.80;;;;;;4991463;28;20033;-95
2021/07/02 10:21:45;;;;;;;8.75;7.60;;;29.20;67.50;;;;;;4983598;28;20023;-95
2021/07/02 10:39:53;;;;;;;9.57;8.50;;;29.20;68.00;;;;;;4992962;28;20054;-96
2021/07/02 10:42:29;;;;;;;10.23;9.32;;;29.10;68.20;;;;;;4989903;28;20039;-95
2021/07/02 10:45:02;;;;;;;11.10;8.32;;;29.10;68.20;;;;;;4969987;28;20467;-95
2021/07/02 10:48:18;;;;;;;;;;;;;;;;;;;;;
2021/07/02 10:51:30;;;;;;;13.07;8.55;;;29.20;68.60;;;;;;4944031;28;20078;-95
2021/07/02 10:54:21;;;;;;;10.23;8.63;;;29.30;68.30;;;;;;4990223;28;20030;-91
2021/07/02 11:00:29;;;;;;;9.35;8.35;;;29.30;67.10;;;;;;4937170;29;20040;-94
2021/07/02 11:03:21;;;;;;;8.20;7.40;;;29.50;67.30;;;;;;4937218;28;20044;-92
2021/07/02 11:05:52;;;;;;;8.60;6.97;;;29.80;66.60;;;;;;4960429;28;20098;-93
2021/07/02 11:09:02;;;;;;;9.20;8.15;;;30.00;66.40;;;;;;4962625;28;20038;-93
2021/07/02 11:17:16;;;;;;;8.05;7.25;;;30.30;65.00;;;;;;5038641;22;20078;-92
2021/07/02 11:19:44;;;;;;;7.65;6.95;;;30.30;64.60;;;;;;4980998;28;20030;-94
2021/07/02 11:22:38;;;;;;;7.80;7.10;;;30.40;64.70;;;;;;4984372;28;20029;-95
2021/07/02 11:25:46;;;;;;;8.57;7.78;;;30.50;64.30;;;;;;5006012;28;20098;-92
2021/07/02 11:28:42;;;;;;;9.30;8.40;;;30.60;63.20;;;;;;4997595;28;20018;-95
2021/07/02 11:31:38;;;;;;;8.52;7.65;;;30.70;63.80;;;;;;5005991;28;20078;-96
2021/07/02 11:39:27;;;;;;;8.50;7.70;;;30.40;63.30;;;;;;4982897;28;20047;-93
2021/07/02 11:42:17;;;;;;;8.45;7.63;;;30.40;63.40;;;;;;4981482;28;20038;-96
2021/07/02 11:44:46;;;;;;;7.05;6.30;;;30.50;62.60;;;;;;4989974;28;20042;-94
2021/07/02 11:47:42;;;;;;;8.55;6.97;;;30.60;63.40;;;;;;4965120;28;20030;-95
2021/07/02 11:50:17;;;;;;;8.63;7.82;;;30.70;62.90;;;;;;4977096;28;20081;-96
2021/07/02 11:52:55;;;;;;;9.05;7.82;;;30.70;62.40;;;;;;4962271;28;20478;-92
2021/07/02 11:55:31;;;;;;;9.65;7.95;;;30.60;62.60;;;;;;4989753;28;20124;-94
2021/07/02 11:59:05;;;;;;;;;;;;;;;;;;;;;
2021/07/02 12:17:05;;;;;;;7.55;6.82;;;29.60;66.10;;;;;;4993012;28;20054;-95
2021/07/02 12:19:34;;;;;;;7.38;6.63;;;29.60;66.30;;;;;;4993461;28;20038;-95
2021/07/02 12:22:27;;;;;;;7.70;7.00;;;29.60;66.20;;;;;;4992647;28;20027;-96
2021/07/02 12:25:06;;;;;;;6.72;5.70;;;29.80;65.50;;;;;;4973477;28;20055;-96
2021/07/02 12:27:41;;;;;;;8.60;7.70;;;29.90;65.90;;;;;;4985039;28;20053;-96
2021/07/02 12:30:12;;;;;;;8.57;7.65;;;29.90;65.20;;;;;;4952813;28;20042;-96
2021/07/02 12:32:51;;;;;;;9.38;8.48;;;29.90;65.50;;;;;;4975946;28;20101;-94
2021/07/02 12:35:17;;;;;;;8.82;7.75;;;29.90;64.50;;;;;;4981929;28;20018;-95
2021/07/02 12:37:44;;;;;;;8.48;7.57;;;29.70;64.60;;;;;;4984767;28;20045;-95
2021/07/02 12:40:13;;;;;;;7.43;6.65;;;29.50;64.80;;;;;;4983520;28;20037;-96
2021/07/02 12:42:46;;;;;;;8.85;7.88;;;29.50;65.70;;;;;;5003235;28;20059;-94
2021/07/02 12:45:15;;;;;;;8.15;7.05;;;29.80;64.80;;;;;;4983937;28;20042;-94
2021/07/02 12:47:45;;;;;;;8.95;7.10;;;29.90;64.10;;;;;;4959404;28;20030;-94
2021/07/02 12:50:14;;;;;;;9.10;7.55;;;30.00;63.60;;;;;;4977658;28;20029;-92
2021/07/02 12:55:15;;;;;;;7.50;6.80;;;30.30;63.10;;;;;;4999373;28;20030;-96
2021/07/02 12:57:55;;;;;;;7.72;6.93;;;30.60;62.40;;;;;;4981528;28;20085;-94
2021/07/02 13:00:32;;;;;;;7.70;6.90;;;31.00;62.20;;;;;;4999002;28;20051;-95
2021/07/02 13:03:13;;;;;;;8.73;7.28;;;31.50;59.60;;;;;;4975478;28;20066;-94
2021/07/02 13:05:43;;;;;;;9.15;7.88;;;31.90;57.70;;;;;;4971643;28;20039;-94
2021/07/02 13:08:15;;;;;;;8.27;7.50;;;31.80;58.90;;;;;;4986053;28;20035;-95
2021/07/02 13:10:49;;;;;;;7.68;6.82;;;32.00;58.00;;;;;;4985621;28;20111;-95
2021/07/02 13:13:32;;;;;;;7.38;6.53;;;32.20;57.10;;;;;;4983686;28;20050;-95
2021/07/02 13:16:05;;;;;;;6.68;6.07;;;32.40;56.90;;;;;;4982126;28;20501;-96
2021/07/02 13:18:56;;;;;;;;;;;32.70;56.50;;;;;;4994265;28;20019;-95
2021/07/02 13:21:45;;;;;;;7.00;6.30;;;32.90;55.10;;;;;;4987504;28;19906;-96
2021/07/02 13:24:21;;;;;;;6.63;6.03;;;33.30;54.40;;;;;;4964564;28;20073;-95
2021/07/02 13:27:01;;;;;;;6.22;5.63;;;33.50;54.30;;;;;;4983495;28;20019;-96
2021/07/02 13:29:46;;;;;;;6.47;4.82;;;33.80;53.40;;;;;;4982529;28;20405;-95
2021/07/02 13:32:26;;;;;;;6.18;5.60;;;34.20;53.50;;;;;;4979556;28;20026;-94
2021/07/02 13:34:53;;;;;;;6.22;5.15;;;34.80;52.40;;;;;;4962806;28;20140;-94
2021/07/02 13:37:38;;;;;;;6.28;5.68;;;35.20;53.00;;;;;;4976157;28;20113;-95
2021/07/02 13:40:13;;;;;;;6.30;5.70;;;35.50;50.50;;;;;;4984324;28;20040;-94
2021/07/02 13:42:42;;;;;;;6.53;5.78;;;35.70;50.70;;;;;;4978116;28;20058;-95
2021/07/02 13:45:40;;;;;;;;;;;;;;;;;;;;;
2021/07/02 13:48:39;;;;;;;6.45;5.03;;;35.50;49.50;;;;;;4974362;28;20146;-94
2021/07/02 13:51:10;;;;;;;5.40;4.90;;;35.50;50.40;;;;;;4971354;28;20039;-94
2021/07/02 13:53:39;;;;;;;5.80;5.20;;;35.80;50.20;;;;;;4983002;28;20026;-95
2021/07/02 13:56:12;;;;;;;6.15;5.35;;;36.10;50.60;;;;;;4981955;28;20030;-96
2021/07/02 13:58:42;;;;;;;5.30;4.80;;;36.30;49.60;;;;;;4980543;28;20027;-94